sensor_id;sensor_type;location;lat;lon;timestamp;temperature;humidity
13336;DHT22;6737;51.480;11.962;2023-03-02T00:00:36;0.50;99.90
13336;DHT22;6737;51.480;11.962;2023-03-02T00:03:04;0.70;99.90
13336;DHT22;6737;51.480;11.962;2023-03-02T00:05:31;0.80;99.90
13336;DHT22;6737;51.480;11.962;2023-03-02T00:07:58;0.80;99.90
13336;DHT22;6737;51.480;11.962;2023-03-02T00:10:25;0.80;99.90
13336;DHT22;6737;51.480;11.962;2023-03-02T00:12:51;0.80;99.90
13336;DHT22;6737;51.480;11.962;2023-03-02T00:15:17;0.70;99.90
13336;DHT22;6737;51.480;11.962;2023-03-02T00:17:42;0.70;99.90
13336;DHT22;6737;51.480;11.962;2023-03-02T00:20:09;0.70;99.90
13336;DHT22;6737;51.480;11.962;2023-03-02T00:22:36;0.90;99.90
13336;DHT22;6737;51.480;11.962;2023-03-02T00:25:03;0.70;99.90
13336;DHT22;6737;51.480;11.962;2023-03-02T00:27:29;0.60;99.90
13336;DHT22;6737;51.480;11.962;2023-03-02T00:29:55;0.60;99.90
13336;DHT22;6737;51.480;11.962;2023-03-02T00:32:22;0.60;99.90
13336;DHT22;6737;51.480;11.962;2023-03-02T00:34:48;0.60;99.90
13336;DHT22;6737;51.480;11.962;2023-03-02T00:37:13;0.70;99.90
13336;DHT22;6737;51.480;11.962;2023-03-02T00:39:39;0.80;99.90
13336;DHT22;6737;51.480;11.962;2023-03-02T00:42:05;0.80;99.90
13336;DHT22;6737;51.480;11.962;2023-03-02T00:44:31;0.80;99.90
13336;DHT22;6737;51.480;11.962;2023-03-02T00:46:56;1.00;99.90
13336;DHT22;6737;51.480;11.962;2023-03-02T00:49:22;1.00;99.90
13336;DHT22;6737;51.480;11.962;2023-03-02T00:51:48;1.00;99.90
13336;DHT22;6737;51.480;11.962;2023-03-02T00:54:14;1.00;99.90
13336;DHT22;6737;51.480;11.962;2023-03-02T00:56:39;1.00;99.90
13336;DHT22;6737;51.480;11.962;2023-03-02T00:59:07;1.00;99.90
13336;DHT22;6737;51.480;11.962;2023-03-02T01:01:36;1.10;99.90
13336;DHT22;6737;51.480;11.962;2023-03-02T01:04:02;1.10;99.90
13336;DHT22;6737;51.480;11.962;2023-03-02T01:06:28;1.10;99.90
13336;DHT22;6737;51.480;11.962;2023-03-02T01:08:54;1.10;99.90
13336;DHT22;6737;51.480;11.962;2023-03-02T01:11:21;1.10;99.90
13336;DHT22;6737;51.480;11.962;2023-03-02T01:13:48;1.00;99.90
13336;DHT22;6737;51.480;11.962;2023-03-02T01:16:15;1.10;99.90
13336;DHT22;6737;51.480;11.962;2023-03-02T01:18:40;1.00;99.90
13336;DHT22;6737;51.480;11.962;2023-03-02T01:21:10;0.90;99.90
13336;DHT22;6737;51.480;11.962;2023-03-02T01:23:36;0.90;99.90
13336;DHT22;6737;51.480;11.962;2023-03-02T01:26:02;0.80;99.90
13336;DHT22;6737;51.480;11.962;2023-03-02T01:28:28;0.80;99.90
13336;DHT22;6737;51.480;11.962;2023-03-02T01:30:54;0.80;99.90
13336;DHT22;6737;51.480;11.962;2023-03-02T01:33:20;0.70;99.90
13336;DHT22;6737;51.480;11.962;2023-03-02T01:35:46;0.60;99.90
13336;DHT22;6737;51.480;11.962;2023-03-02T01:38:13;0.30;99.90
13336;DHT22;6737;51.480;11.962;2023-03-02T01:40:39;0.10;99.90
13336;DHT22;6737;51.480;11.962;2023-03-02T01:43:11;0.10;99.90
13336;DHT22;6737;51.480;11.962;2023-03-02T01:45:56;-0.10;99.90
13336;DHT22;6737;51.480;11.962;2023-03-02T01:48:38;-0.30;99.90
13336;DHT22;6737;51.480;11.962;2023-03-02T01:51:05;-0.40;99.90
13336;DHT22;6737;51.480;11.962;2023-03-02T01:53:34;-0.40;99.90
13336;DHT22;6737;51.480;11.962;2023-03-02T01:56:02;-0.40;99.90
13336;DHT22;6737;51.480;11.962;2023-03-02T01:58:31;-0.40;99.90
13336;DHT22;6737;51.480;11.962;2023-03-02T02:00:59;-0.60;99.90
13336;DHT22;6737;51.480;11.962;2023-03-02T02:03:28;-0.60;99.90
13336;DHT22;6737;51.480;11.962;2023-03-02T02:06:23;-0.60;99.90
13336;DHT22;6737;51.480;11.962;2023-03-02T02:08:50;-0.70;99.90
13336;DHT22;6737;51.480;11.962;2023-03-02T02:11:17;-0.80;99.90
13336;DHT22;6737;51.480;11.962;2023-03-02T02:13:44;-0.80;99.90
13336;DHT22;6737;51.480;11.962;2023-03-02T02:16:10;-0.90;99.90
13336;DHT22;6737;51.480;11.962;2023-03-02T02:18:39;-0.90;99.90
13336;DHT22;6737;51.480;11.962;2023-03-02T02:21:06;-0.90;99.90
13336;DHT22;6737;51.480;11.962;2023-03-02T02:29:13;-1.10;99.90
13336;DHT22;6737;51.480;11.962;2023-03-02T02:31:46;-1.10;99.90
13336;DHT22;6737;51.480;11.962;2023-03-02T02:34:37;-1.10;99.90
13336;DHT22;6737;51.480;11.962;2023-03-02T02:37:32;-1.10;99.90
13336;DHT22;6737;51.480;11.962;2023-03-02T02:39:59;-1.00;99.90
13336;DHT22;6737;51.480;11.962;2023-03-02T02:42:30;-1.00;99.90
13336;DHT22;6737;51.480;11.962;2023-03-02T02:45:01;-1.10;99.90
13336;DHT22;6737;51.480;11.962;2023-03-02T02:47:28;-1.10;99.90
13336;DHT22;6737;51.480;11.962;2023-03-02T02:49:55;-1.10;99.90
13336;DHT22;6737;51.480;11.962;2023-03-02T02:52:23;-1.10;99.90
13336;DHT22;6737;51.480;11.962;2023-03-02T02:54:53;-1.10;99.90
13336;DHT22;6737;51.480;11.962;2023-03-02T02:57:20;-1.20;99.90
13336;DHT22;6737;51.480;11.962;2023-03-02T02:59:52;-1.20;99.90
13336;DHT22;6737;51.480;11.962;2023-03-02T03:02:23;-1.20;99.90
13336;DHT22;6737;51.480;11.962;2023-03-02T03:04:49;-1.20;99.90
13336;DHT22;6737;51.480;11.962;2023-03-02T03:07:23;-1.20;99.90
13336;DHT22;6737;51.480;11.962;2023-03-02T03:10:22;-1.10;99.90
13336;DHT22;6737;51.480;11.962;2023-03-02T03:12:50;-1.10;99.90
13336;DHT22;6737;51.480;11.962;2023-03-02T03:15:16;-1.10;99.90
13336;DHT22;6737;51.480;11.962;2023-03-02T03:18:00;-1.10;99.90
13336;DHT22;6737;51.480;11.962;2023-03-02T03:20:26;-1.10;99.90
13336;DHT22;6737;51.480;11.962;2023-03-02T03:22:52;-1.10;99.90
13336;DHT22;6737;51.480;11.962;2023-03-02T03:25:20;-1.10;99.90
13336;DHT22;6737;51.480;11.962;2023-03-02T03:27:46;-1.20;99.90
13336;DHT22;6737;51.480;11.962;2023-03-02T03:30:13;-1.20;99.90
13336;DHT22;6737;51.480;11.962;2023-03-02T03:32:40;-1.20;99.90
13336;DHT22;6737;51.480;11.962;2023-03-02T03:35:07;-1.10;99.90
13336;DHT22;6737;51.480;11.962;2023-03-02T03:37:40;-1.20;99.90
13336;DHT22;6737;51.480;11.962;2023-03-02T03:40:08;-1.20;99.90
13336;DHT22;6737;51.480;11.962;2023-03-02T03:42:36;-1.10;99.90
13336;DHT22;6737;51.480;11.962;2023-03-02T03:45:03;-1.20;99.90
13336;DHT22;6737;51.480;11.962;2023-03-02T03:47:29;-1.20;99.90
13336;DHT22;6737;51.480;11.962;2023-03-02T03:49:55;-1.30;99.90
13336;DHT22;6737;51.480;11.962;2023-03-02T03:52:21;-1.30;99.90
13336;DHT22;6737;51.480;11.962;2023-03-02T03:54:59;-1.30;99.90
13336;DHT22;6737;51.480;11.962;2023-03-02T03:57:26;-1.40;99.90
13336;DHT22;6737;51.480;11.962;2023-03-02T03:59:52;-1.40;99.90
13336;DHT22;6737;51.480;11.962;2023-03-02T04:02:18;-1.40;99.90
13336;DHT22;6737;51.480;11.962;2023-03-02T04:04:44;-1.50;99.90
13336;DHT22;6737;51.480;11.962;2023-03-02T04:07:12;-1.50;99.90
13336;DHT22;6737;51.480;11.962;2023-03-02T04:09:38;-1.50;99.90
13336;DHT22;6737;51.480;11.962;2023-03-02T04:12:05;-1.50;99.90
13336;DHT22;6737;51.480;11.962;2023-03-02T04:14:31;-1.50;99.90
13336;DHT22;6737;51.480;11.962;2023-03-02T04:16:57;-1.40;99.90
13336;DHT22;6737;51.480;11.962;2023-03-02T04:19:23;-1.40;99.90
13336;DHT22;6737;51.480;11.962;2023-03-02T04:21:52;-1.40;99.90
13336;DHT22;6737;51.480;11.962;2023-03-02T04:24:21;-1.40;99.90
13336;DHT22;6737;51.480;11.962;2023-03-02T04:26:48;-1.40;99.90
13336;DHT22;6737;51.480;11.962;2023-03-02T04:29:15;-1.40;99.90
13336;DHT22;6737;51.480;11.962;2023-03-02T04:31:41;-1.50;99.90
13336;DHT22;6737;51.480;11.962;2023-03-02T04:34:07;-1.60;99.90
13336;DHT22;6737;51.480;11.962;2023-03-02T04:36:36;-1.60;99.90
13336;DHT22;6737;51.480;11.962;2023-03-02T04:39:05;-1.70;99.90
13336;DHT22;6737;51.480;11.962;2023-03-02T04:41:31;-1.70;99.90
13336;DHT22;6737;51.480;11.962;2023-03-02T04:43:56;-1.70;99.90
13336;DHT22;6737;51.480;11.962;2023-03-02T04:46:25;-1.70;99.90
13336;DHT22;6737;51.480;11.962;2023-03-02T04:48:51;-1.80;99.90
13336;DHT22;6737;51.480;11.962;2023-03-02T04:51:23;-1.70;99.90
13336;DHT22;6737;51.480;11.962;2023-03-02T04:53:52;-1.70;99.90
13336;DHT22;6737;51.480;11.962;2023-03-02T04:56:18;-1.70;99.90
13336;DHT22;6737;51.480;11.962;2023-03-02T04:58:44;-1.70;99.90
13336;DHT22;6737;51.480;11.962;2023-03-02T05:01:11;-1.80;99.90
13336;DHT22;6737;51.480;11.962;2023-03-02T05:03:37;-1.80;99.90
13336;DHT22;6737;51.480;11.962;2023-03-02T05:06:03;-1.80;99.90
13336;DHT22;6737;51.480;11.962;2023-03-02T05:08:30;-1.80;99.90
13336;DHT22;6737;51.480;11.962;2023-03-02T05:10:56;-1.80;99.90
13336;DHT22;6737;51.480;11.962;2023-03-02T05:13:24;-1.80;99.90
13336;DHT22;6737;51.480;11.962;2023-03-02T05:15:50;-1.80;99.90
13336;DHT22;6737;51.480;11.962;2023-03-02T05:18:18;-1.70;99.90
13336;DHT22;6737;51.480;11.962;2023-03-02T05:20:45;-1.70;99.90
13336;DHT22;6737;51.480;11.962;2023-03-02T05:23:13;-1.80;99.90
13336;DHT22;6737;51.480;11.962;2023-03-02T05:25:50;-1.70;99.90
13336;DHT22;6737;51.480;11.962;2023-03-02T05:28:17;-1.80;99.90
13336;DHT22;6737;51.480;11.962;2023-03-02T05:30:44;-1.90;99.90
13336;DHT22;6737;51.480;11.962;2023-03-02T05:33:10;-1.90;99.90
13336;DHT22;6737;51.480;11.962;2023-03-02T05:35:36;-1.90;99.90
13336;DHT22;6737;51.480;11.962;2023-03-02T05:38:02;-1.80;99.90
13336;DHT22;6737;51.480;11.962;2023-03-02T05:40:28;-1.70;99.90
13336;DHT22;6737;51.480;11.962;2023-03-02T05:42:53;-1.70;99.90
13336;DHT22;6737;51.480;11.962;2023-03-02T05:45:32;-1.70;99.90
13336;DHT22;6737;51.480;11.962;2023-03-02T05:47:58;-1.70;99.90
13336;DHT22;6737;51.480;11.962;2023-03-02T05:50:24;-1.70;99.90
13336;DHT22;6737;51.480;11.962;2023-03-02T05:52:50;-1.70;99.90
13336;DHT22;6737;51.480;11.962;2023-03-02T05:55:17;-1.70;99.90
13336;DHT22;6737;51.480;11.962;2023-03-02T05:57:44;-1.60;99.90
13336;DHT22;6737;51.480;11.962;2023-03-02T06:00:12;-1.60;99.90
13336;DHT22;6737;51.480;11.962;2023-03-02T06:02:38;-1.60;99.90
13336;DHT22;6737;51.480;11.962;2023-03-02T06:05:06;-1.60;99.90
13336;DHT22;6737;51.480;11.962;2023-03-02T06:07:32;-1.60;99.90
13336;DHT22;6737;51.480;11.962;2023-03-02T06:09:58;-1.60;99.90
13336;DHT22;6737;51.480;11.962;2023-03-02T06:12:24;-1.70;99.90
13336;DHT22;6737;51.480;11.962;2023-03-02T06:14:50;-1.70;99.90
13336;DHT22;6737;51.480;11.962;2023-03-02T06:17:16;-1.80;99.90
13336;DHT22;6737;51.480;11.962;2023-03-02T06:19:41;-1.80;99.90
13336;DHT22;6737;51.480;11.962;2023-03-02T06:22:07;-1.80;99.90
13336;DHT22;6737;51.480;11.962;2023-03-02T06:24:33;-1.90;99.90
13336;DHT22;6737;51.480;11.962;2023-03-02T06:26:59;-1.90;99.90
13336;DHT22;6737;51.480;11.962;2023-03-02T06:29:25;-1.90;99.90
13336;DHT22;6737;51.480;11.962;2023-03-02T06:31:51;-1.90;99.90
13336;DHT22;6737;51.480;11.962;2023-03-02T06:34:16;-1.90;99.90
13336;DHT22;6737;51.480;11.962;2023-03-02T06:36:42;-1.90;99.90
13336;DHT22;6737;51.480;11.962;2023-03-02T06:39:09;-1.90;99.90
13336;DHT22;6737;51.480;11.962;2023-03-02T06:41:44;-1.90;99.90
13336;DHT22;6737;51.480;11.962;2023-03-02T06:44:11;-1.90;99.90
13336;DHT22;6737;51.480;11.962;2023-03-02T06:46:38;-2.00;99.90
13336;DHT22;6737;51.480;11.962;2023-03-02T06:49:05;-1.90;99.90
13336;DHT22;6737;51.480;11.962;2023-03-02T06:51:31;-1.80;99.90
13336;DHT22;6737;51.480;11.962;2023-03-02T06:53:57;-1.80;99.90
13336;DHT22;6737;51.480;11.962;2023-03-02T06:56:23;-1.70;99.90
13336;DHT22;6737;51.480;11.962;2023-03-02T06:58:49;-1.80;99.90
13336;DHT22;6737;51.480;11.962;2023-03-02T07:01:15;-1.80;99.90
13336;DHT22;6737;51.480;11.962;2023-03-02T07:03:41;-1.80;99.90
13336;DHT22;6737;51.480;11.962;2023-03-02T07:06:08;-1.70;99.90
13336;DHT22;6737;51.480;11.962;2023-03-02T07:08:34;-1.50;99.90
13336;DHT22;6737;51.480;11.962;2023-03-02T07:11:07;-1.40;99.90
13336;DHT22;6737;51.480;11.962;2023-03-02T07:13:33;-1.30;99.90
13336;DHT22;6737;51.480;11.962;2023-03-02T07:15:59;-1.20;99.90
13336;DHT22;6737;51.480;11.962;2023-03-02T07:18:24;-1.20;99.90
13336;DHT22;6737;51.480;11.962;2023-03-02T07:20:50;-1.10;99.90
13336;DHT22;6737;51.480;11.962;2023-03-02T07:23:16;-1.10;99.90
13336;DHT22;6737;51.480;11.962;2023-03-02T07:25:42;-0.90;99.90
13336;DHT22;6737;51.480;11.962;2023-03-02T07:28:08;-0.80;99.90
13336;DHT22;6737;51.480;11.962;2023-03-02T07:30:33;-0.70;99.90
13336;DHT22;6737;51.480;11.962;2023-03-02T07:32:59;-0.60;99.90
13336;DHT22;6737;51.480;11.962;2023-03-02T07:35:25;-0.60;99.90
13336;DHT22;6737;51.480;11.962;2023-03-02T07:37:51;-0.50;99.90
13336;DHT22;6737;51.480;11.962;2023-03-02T07:40:17;-0.40;99.90
13336;DHT22;6737;51.480;11.962;2023-03-02T07:42:43;-0.40;99.90
13336;DHT22;6737;51.480;11.962;2023-03-02T07:45:10;-0.20;99.90
13336;DHT22;6737;51.480;11.962;2023-03-02T07:47:36;0.00;99.90
13336;DHT22;6737;51.480;11.962;2023-03-02T07:50:02;0.20;99.90
13336;DHT22;6737;51.480;11.962;2023-03-02T07:52:29;0.20;99.90
13336;DHT22;6737;51.480;11.962;2023-03-02T07:54:56;0.20;99.90
13336;DHT22;6737;51.480;11.962;2023-03-02T07:57:22;0.20;99.90
13336;DHT22;6737;51.480;11.962;2023-03-02T07:59:48;0.30;99.90
13336;DHT22;6737;51.480;11.962;2023-03-02T08:02:15;0.40;99.90
13336;DHT22;6737;51.480;11.962;2023-03-02T08:04:42;0.40;99.90
13336;DHT22;6737;51.480;11.962;2023-03-02T08:07:08;0.40;99.90
13336;DHT22;6737;51.480;11.962;2023-03-02T08:09:34;0.50;99.90
13336;DHT22;6737;51.480;11.962;2023-03-02T08:12:00;0.60;99.90
13336;DHT22;6737;51.480;11.962;2023-03-02T08:14:25;0.60;99.90
13336;DHT22;6737;51.480;11.962;2023-03-02T08:16:52;0.80;99.90
13336;DHT22;6737;51.480;11.962;2023-03-02T08:19:18;0.80;99.90
13336;DHT22;6737;51.480;11.962;2023-03-02T08:21:44;0.90;99.90
13336;DHT22;6737;51.480;11.962;2023-03-02T08:24:10;1.10;99.90
13336;DHT22;6737;51.480;11.962;2023-03-02T08:26:37;1.10;99.90
13336;DHT22;6737;51.480;11.962;2023-03-02T08:29:03;1.20;99.90
13336;DHT22;6737;51.480;11.962;2023-03-02T08:31:30;1.40;99.90
13336;DHT22;6737;51.480;11.962;2023-03-02T08:33:56;1.50;99.90
13336;DHT22;6737;51.480;11.962;2023-03-02T08:36:24;1.70;99.90
13336;DHT22;6737;51.480;11.962;2023-03-02T08:38:50;2.10;99.90
13336;DHT22;6737;51.480;11.962;2023-03-02T08:41:18;2.20;99.90
13336;DHT22;6737;51.480;11.962;2023-03-02T08:43:46;2.40;99.90
13336;DHT22;6737;51.480;11.962;2023-03-02T08:46:14;2.50;99.90
13336;DHT22;6737;51.480;11.962;2023-03-02T08:48:41;2.70;99.90
13336;DHT22;6737;51.480;11.962;2023-03-02T08:51:09;2.80;99.90
13336;DHT22;6737;51.480;11.962;2023-03-02T08:53:39;2.90;99.90
13336;DHT22;6737;51.480;11.962;2023-03-02T08:56:17;3.00;99.90
13336;DHT22;6737;51.480;11.962;2023-03-02T08:58:45;3.10;99.90
13336;DHT22;6737;51.480;11.962;2023-03-02T09:01:19;3.20;99.90
13336;DHT22;6737;51.480;11.962;2023-03-02T09:03:45;3.30;99.90
13336;DHT22;6737;51.480;11.962;2023-03-02T09:06:11;3.40;99.90
13336;DHT22;6737;51.480;11.962;2023-03-02T09:08:38;3.40;99.90
13336;DHT22;6737;51.480;11.962;2023-03-02T09:11:04;3.50;99.90
13336;DHT22;6737;51.480;11.962;2023-03-02T09:13:30;3.60;99.90
13336;DHT22;6737;51.480;11.962;2023-03-02T09:15:56;3.60;99.90
13336;DHT22;6737;51.480;11.962;2023-03-02T09:18:22;3.70;99.90
13336;DHT22;6737;51.480;11.962;2023-03-02T09:20:52;3.80;99.90
13336;DHT22;6737;51.480;11.962;2023-03-02T09:23:18;3.80;99.90
13336;DHT22;6737;51.480;11.962;2023-03-02T09:25:44;3.90;99.90
13336;DHT22;6737;51.480;11.962;2023-03-02T09:28:12;4.10;99.90
13336;DHT22;6737;51.480;11.962;2023-03-02T09:30:38;4.20;99.90
13336;DHT22;6737;51.480;11.962;2023-03-02T09:33:04;4.10;99.90
13336;DHT22;6737;51.480;11.962;2023-03-02T09:35:29;4.20;99.90
13336;DHT22;6737;51.480;11.962;2023-03-02T09:37:56;4.20;99.90
13336;DHT22;6737;51.480;11.962;2023-03-02T09:40:24;4.30;99.90
13336;DHT22;6737;51.480;11.962;2023-03-02T09:46:06;4.40;99.90
13336;DHT22;6737;51.480;11.962;2023-03-02T09:51:38;4.40;99.90
13336;DHT22;6737;51.480;11.962;2023-03-02T09:54:14;4.50;99.90
13336;DHT22;6737;51.480;11.962;2023-03-02T09:56:52;4.70;99.90
13336;DHT22;6737;51.480;11.962;2023-03-02T09:59:24;4.80;99.90
13336;DHT22;6737;51.480;11.962;2023-03-02T10:01:58;4.80;99.90
13336;DHT22;6737;51.480;11.962;2023-03-02T10:04:37;4.90;99.90
13336;DHT22;6737;51.480;11.962;2023-03-02T10:09:38;4.70;99.90
13336;DHT22;6737;51.480;11.962;2023-03-02T10:15:04;4.80;99.90
13336;DHT22;6737;51.480;11.962;2023-03-02T10:17:53;4.90;99.90
13336;DHT22;6737;51.480;11.962;2023-03-02T10:20:30;5.10;99.90
13336;DHT22;6737;51.480;11.962;2023-03-02T10:23:15;4.90;99.90
13336;DHT22;6737;51.480;11.962;2023-03-02T10:25:47;5.00;99.90
13336;DHT22;6737;51.480;11.962;2023-03-02T10:28:19;5.10;99.90
13336;DHT22;6737;51.480;11.962;2023-03-02T10:30:47;4.90;99.90
13336;DHT22;6737;51.480;11.962;2023-03-02T10:33:17;5.00;99.90
13336;DHT22;6737;51.480;11.962;2023-03-02T10:35:46;5.20;99.90
13336;DHT22;6737;51.480;11.962;2023-03-02T10:38:20;5.20;99.90
13336;DHT22;6737;51.480;11.962;2023-03-02T10:40:56;5.20;99.90
13336;DHT22;6737;51.480;11.962;2023-03-02T10:43:35;5.30;99.90
13336;DHT22;6737;51.480;11.962;2023-03-02T10:46:08;5.40;99.90
13336;DHT22;6737;51.480;11.962;2023-03-02T10:51:27;5.20;99.90
13336;DHT22;6737;51.480;11.962;2023-03-02T10:54:12;5.30;99.90
13336;DHT22;6737;51.480;11.962;2023-03-02T10:56:43;5.30;99.90
13336;DHT22;6737;51.480;11.962;2023-03-02T11:02:24;5.40;99.90
13336;DHT22;6737;51.480;11.962;2023-03-02T11:04:57;5.40;99.90
13336;DHT22;6737;51.480;11.962;2023-03-02T11:07:26;5.50;99.90
13336;DHT22;6737;51.480;11.962;2023-03-02T11:10:33;5.60;99.90
13336;DHT22;6737;51.480;11.962;2023-03-02T11:12:52;5.50;99.90
13336;DHT22;6737;51.480;11.962;2023-03-02T11:20:25;5.60;99.90
13336;DHT22;6737;51.480;11.962;2023-03-02T11:23:04;5.60;99.90
13336;DHT22;6737;51.480;11.962;2023-03-02T11:25:36;5.70;99.90
13336;DHT22;6737;51.480;11.962;2023-03-02T11:28:32;5.80;99.90
13336;DHT22;6737;51.480;11.962;2023-03-02T11:30:56;5.90;99.90
13336;DHT22;6737;51.480;11.962;2023-03-02T11:36:05;5.90;99.90
13336;DHT22;6737;51.480;11.962;2023-03-02T11:38:40;6.00;99.90
13336;DHT22;6737;51.480;11.962;2023-03-02T11:41:20;6.10;99.90
13336;DHT22;6737;51.480;11.962;2023-03-02T11:43:53;6.10;99.90
13336;DHT22;6737;51.480;11.962;2023-03-02T11:46:26;6.10;99.90
13336;DHT22;6737;51.480;11.962;2023-03-02T11:49:00;6.10;99.90
13336;DHT22;6737;51.480;11.962;2023-03-02T11:51:33;6.20;99.90
13336;DHT22;6737;51.480;11.962;2023-03-02T11:56:31;6.30;99.90
13336;DHT22;6737;51.480;11.962;2023-03-02T11:59:04;6.30;99.90
13336;DHT22;6737;51.480;11.962;2023-03-02T12:01:34;6.40;99.90
13336;DHT22;6737;51.480;11.962;2023-03-02T12:04:24;6.50;99.90
13336;DHT22;6737;51.480;11.962;2023-03-02T12:06:51;6.50;99.90
13336;DHT22;6737;51.480;11.962;2023-03-02T12:09:25;6.50;99.90
13336;DHT22;6737;51.480;11.962;2023-03-02T12:12:28;6.80;99.90
13336;DHT22;6737;51.480;11.962;2023-03-02T12:14:46;6.70;99.90
13336;DHT22;6737;51.480;11.962;2023-03-02T12:19:47;6.80;99.90
13336;DHT22;6737;51.480;11.962;2023-03-02T12:22:29;6.70;99.90
13336;DHT22;6737;51.480;11.962;2023-03-02T12:27:45;7.00;99.90
13336;DHT22;6737;51.480;11.962;2023-03-02T12:32:46;6.90;99.90
13336;DHT22;6737;51.480;11.962;2023-03-02T12:35:23;6.90;99.90
13336;DHT22;6737;51.480;11.962;2023-03-02T12:37:58;6.90;99.90
13336;DHT22;6737;51.480;11.962;2023-03-02T12:43:29;7.00;99.90
13336;DHT22;6737;51.480;11.962;2023-03-02T12:46:38;7.00;99.90
13336;DHT22;6737;51.480;11.962;2023-03-02T12:54:18;7.00;99.90
13336;DHT22;6737;51.480;11.962;2023-03-02T12:56:45;7.00;99.90
13336;DHT22;6737;51.480;11.962;2023-03-02T12:59:25;7.00;99.90
13336;DHT22;6737;51.480;11.962;2023-03-02T13:02:24;7.10;99.90
13336;DHT22;6737;51.480;11.962;2023-03-02T13:04:54;7.10;99.90
13336;DHT22;6737;51.480;11.962;2023-03-02T13:07:35;7.10;99.90
13336;DHT22;6737;51.480;11.962;2023-03-02T13:10:05;7.10;99.90
13336;DHT22;6737;51.480;11.962;2023-03-02T13:12:33;7.10;99.90
13336;DHT22;6737;51.480;11.962;2023-03-02T13:15:00;7.10;99.90
13336;DHT22;6737;51.480;11.962;2023-03-02T13:17:31;7.10;99.90
13336;DHT22;6737;51.480;11.962;2023-03-02T13:19:58;7.00;99.90
13336;DHT22;6737;51.480;11.962;2023-03-02T13:22:26;7.10;99.90
13336;DHT22;6737;51.480;11.962;2023-03-02T13:25:04;7.20;99.90
13336;DHT22;6737;51.480;11.962;2023-03-02T13:27:32;7.20;99.90
13336;DHT22;6737;51.480;11.962;2023-03-02T13:30:25;7.10;99.90
13336;DHT22;6737;51.480;11.962;2023-03-02T13:32:56;7.10;99.90
13336;DHT22;6737;51.480;11.962;2023-03-02T13:35:28;7.00;99.90
13336;DHT22;6737;51.480;11.962;2023-03-02T13:38:03;7.20;99.90
13336;DHT22;6737;51.480;11.962;2023-03-02T13:40:39;7.10;99.90
13336;DHT22;6737;51.480;11.962;2023-03-02T13:43:35;7.20;99.90
13336;DHT22;6737;51.480;11.962;2023-03-02T13:48:32;7.20;99.90
13336;DHT22;6737;51.480;11.962;2023-03-02T13:53:25;7.10;99.90
13336;DHT22;6737;51.480;11.962;2023-03-02T13:55:53;7.10;99.90
13336;DHT22;6737;51.480;11.962;2023-03-02T13:58:20;7.00;99.90
13336;DHT22;6737;51.480;11.962;2023-03-02T14:00:47;7.10;99.90
13336;DHT22;6737;51.480;11.962;2023-03-02T14:03:32;7.00;99.90
13336;DHT22;6737;51.480;11.962;2023-03-02T14:05:58;7.00;99.90
13336;DHT22;6737;51.480;11.962;2023-03-02T14:08:25;6.90;99.90
13336;DHT22;6737;51.480;11.962;2023-03-02T14:10:53;6.80;99.90
13336;DHT22;6737;51.480;11.962;2023-03-02T14:13:36;6.90;99.90
13336;DHT22;6737;51.480;11.962;2023-03-02T14:16:04;6.80;99.90
13336;DHT22;6737;51.480;11.962;2023-03-02T14:18:39;6.70;99.90
13336;DHT22;6737;51.480;11.962;2023-03-02T14:21:19;6.70;99.90
13336;DHT22;6737;51.480;11.962;2023-03-02T14:23:45;6.60;99.90
13336;DHT22;6737;51.480;11.962;2023-03-02T14:28:57;6.60;99.90
13336;DHT22;6737;51.480;11.962;2023-03-02T14:31:23;6.50;99.90
13336;DHT22;6737;51.480;11.962;2023-03-02T14:33:50;6.60;99.90
13336;DHT22;6737;51.480;11.962;2023-03-02T14:36:26;6.50;99.90
13336;DHT22;6737;51.480;11.962;2023-03-02T14:38:56;6.50;99.90
13336;DHT22;6737;51.480;11.962;2023-03-02T14:41:27;6.50;99.90
13336;DHT22;6737;51.480;11.962;2023-03-02T14:43:52;6.50;99.90
13336;DHT22;6737;51.480;11.962;2023-03-02T14:46:18;6.50;99.90
13336;DHT22;6737;51.480;11.962;2023-03-02T14:48:44;6.40;99.90
13336;DHT22;6737;51.480;11.962;2023-03-02T14:51:22;6.40;99.90
13336;DHT22;6737;51.480;11.962;2023-03-02T14:53:50;6.50;99.90
13336;DHT22;6737;51.480;11.962;2023-03-02T14:56:20;6.40;99.90
13336;DHT22;6737;51.480;11.962;2023-03-02T14:58:51;6.30;99.90
13336;DHT22;6737;51.480;11.962;2023-03-02T15:01:17;6.30;99.90
13336;DHT22;6737;51.480;11.962;2023-03-02T15:03:43;6.30;99.90
13336;DHT22;6737;51.480;11.962;2023-03-02T15:06:27;6.20;99.90
13336;DHT22;6737;51.480;11.962;2023-03-02T15:08:56;6.10;99.90
13336;DHT22;6737;51.480;11.962;2023-03-02T15:11:23;6.10;99.90
13336;DHT22;6737;51.480;11.962;2023-03-02T15:13:49;6.10;99.90
13336;DHT22;6737;51.480;11.962;2023-03-02T15:16:15;6.10;99.90
13336;DHT22;6737;51.480;11.962;2023-03-02T15:18:41;6.00;99.90
13336;DHT22;6737;51.480;11.962;2023-03-02T15:21:15;5.90;99.90
13336;DHT22;6737;51.480;11.962;2023-03-02T15:23:42;5.80;99.90
13336;DHT22;6737;51.480;11.962;2023-03-02T15:26:08;5.80;99.90
13336;DHT22;6737;51.480;11.962;2023-03-02T15:28:34;5.70;99.90
13336;DHT22;6737;51.480;11.962;2023-03-02T15:31:14;5.70;99.90
13336;DHT22;6737;51.480;11.962;2023-03-02T15:33:40;5.70;99.90
13336;DHT22;6737;51.480;11.962;2023-03-02T15:36:08;5.60;99.90
13336;DHT22;6737;51.480;11.962;2023-03-02T15:38:34;5.50;99.90
13336;DHT22;6737;51.480;11.962;2023-03-02T15:41:09;5.50;99.90
13336;DHT22;6737;51.480;11.962;2023-03-02T15:43:36;5.40;99.90
13336;DHT22;6737;51.480;11.962;2023-03-02T15:46:02;5.40;99.90
13336;DHT22;6737;51.480;11.962;2023-03-02T15:48:28;5.30;99.90
13336;DHT22;6737;51.480;11.962;2023-03-02T15:50:58;5.20;99.90
13336;DHT22;6737;51.480;11.962;2023-03-02T15:53:26;5.20;99.90
13336;DHT22;6737;51.480;11.962;2023-03-02T15:55:52;5.10;99.90
13336;DHT22;6737;51.480;11.962;2023-03-02T15:58:18;5.10;99.90
13336;DHT22;6737;51.480;11.962;2023-03-02T16:00:44;5.00;99.90
13336;DHT22;6737;51.480;11.962;2023-03-02T16:03:11;4.90;99.90
13336;DHT22;6737;51.480;11.962;2023-03-02T16:05:40;4.80;99.90
13336;DHT22;6737;51.480;11.962;2023-03-02T16:08:06;4.80;99.90
13336;DHT22;6737;51.480;11.962;2023-03-02T16:10:32;4.80;99.90
13336;DHT22;6737;51.480;11.962;2023-03-02T16:13:04;4.80;99.90
13336;DHT22;6737;51.480;11.962;2023-03-02T16:15:40;4.70;99.90
13336;DHT22;6737;51.480;11.962;2023-03-02T16:18:07;4.60;99.90
13336;DHT22;6737;51.480;11.962;2023-03-02T16:20:34;4.50;99.90
13336;DHT22;6737;51.480;11.962;2023-03-02T16:23:01;4.50;99.90
13336;DHT22;6737;51.480;11.962;2023-03-02T16:25:32;4.40;99.90
13336;DHT22;6737;51.480;11.962;2023-03-02T16:28:00;4.40;99.90
13336;DHT22;6737;51.480;11.962;2023-03-02T16:30:26;4.30;99.90
13336;DHT22;6737;51.480;11.962;2023-03-02T16:32:56;4.30;99.90
13336;DHT22;6737;51.480;11.962;2023-03-02T16:35:22;4.30;99.90
13336;DHT22;6737;51.480;11.962;2023-03-02T16:37:48;4.10;99.90
13336;DHT22;6737;51.480;11.962;2023-03-02T16:40:14;4.00;99.90
13336;DHT22;6737;51.480;11.962;2023-03-02T16:42:40;3.90;99.90
13336;DHT22;6737;51.480;11.962;2023-03-02T16:45:06;3.80;99.90
13336;DHT22;6737;51.480;11.962;2023-03-02T16:47:32;3.60;99.90
13336;DHT22;6737;51.480;11.962;2023-03-02T16:49:58;3.60;99.90